Terminal Aerodrome Forecast
Issued by NWS Hastings, NE

Home | Current Version | Previous Version | Text Only | Print | Product List | Glossary On
Versions: 1 2 3 4 5 6 7 8 9 10 11 12 13
838
FTUS45 KGID 171120
TAFEAR
TAF
KEAR 171120Z 1712/1812 36013KT P6SM SCT130
     FM171600 36012KT P6SM BKN025
     FM172100 35007KT P6SM BKN035
     FM172300 VRB06KT P6SM BKN050
     FM180800 23007KT P6SM FEW250=

USA.gov is the U.S. government's official web portal to all federal, state and local government web resources and services.